Johnson County (6A4)
Johnson County, TN
Field Elevation: 2240
Lat: 36°25.07N  Long: 81°49.51W
CTAF/Unicom Freq: 122.7000
   
    
Weather Advisories
4/25/2014 08:41 Z
Altimeter 29.92" Hg
Wind 070° @ 0 KT
Gusts --
Visibility 10 SM
Ceiling BKN130
Temperature 12° C (54° F)
Dewpoint 5° C (41° F)
Relative Humidity 62%
Density Altitude --
Condensation Altitude 5,900 feet
  Wind and Runways
Indicated Runway = 6
History
 
 
More Info
All DigiWx sites map
 
Johnson County Airport FBO
 
Airport IQ 5010
(M01) General Dewitt Spain Airport
(3M3) Collegedale Muni
 
about DigiWx
 
FAA Disclaimer: The data displayed is for advisory purposes only and is not to be used for flight planning or operations. For official data, please call (not available) to hear the current automated AWOS voice message.
  METAR 6A4 250841Z AUTO 07000KT 10SM BKN130 12/05 A2992